sensor_id;sensor_type;location;lat;lon;timestamp;P1;durP1;ratioP1;P2;durP2;ratioP2
48975;SDS011;34791;52.752;8.346;2022-12-26T00:01:44;210.47;;;34.00;;
48975;SDS011;34791;52.752;8.346;2022-12-26T00:04:11;192.03;;;34.17;;
48975;SDS011;34791;52.752;8.346;2022-12-26T00:06:37;219.17;;;34.13;;
48975;SDS011;34791;52.752;8.346;2022-12-26T00:09:03;196.03;;;33.30;;
48975;SDS011;34791;52.752;8.346;2022-12-26T00:11:30;216.37;;;33.93;;
48975;SDS011;34791;52.752;8.346;2022-12-26T00:13:56;228.10;;;36.17;;
48975;SDS011;34791;52.752;8.346;2022-12-26T00:16:29;238.43;;;34.57;;
48975;SDS011;34791;52.752;8.346;2022-12-26T00:18:55;243.10;;;34.93;;
48975;SDS011;34791;52.752;8.346;2022-12-26T00:21:21;283.37;;;35.93;;
48975;SDS011;34791;52.752;8.346;2022-12-26T00:23:47;278.40;;;37.17;;
48975;SDS011;34791;52.752;8.346;2022-12-26T00:26:14;311.53;;;38.40;;
48975;SDS011;34791;52.752;8.346;2022-12-26T00:28:41;247.73;;;34.57;;
48975;SDS011;34791;52.752;8.346;2022-12-26T00:31:08;244.97;;;36.03;;
48975;SDS011;34791;52.752;8.346;2022-12-26T00:33:36;247.57;;;36.07;;
48975;SDS011;34791;52.752;8.346;2022-12-26T00:36:06;242.50;;;35.17;;
48975;SDS011;34791;52.752;8.346;2022-12-26T00:38:37;227.90;;;33.17;;
48975;SDS011;34791;52.752;8.346;2022-12-26T00:41:06;213.20;;;33.40;;
48975;SDS011;34791;52.752;8.346;2022-12-26T00:43:32;247.90;;;34.43;;
48975;SDS011;34791;52.752;8.346;2022-12-26T00:45:58;210.40;;;34.17;;
48975;SDS011;34791;52.752;8.346;2022-12-26T00:48:23;208.07;;;33.33;;
48975;SDS011;34791;52.752;8.346;2022-12-26T00:50:49;184.27;;;31.73;;
48975;SDS011;34791;52.752;8.346;2022-12-26T00:53:15;226.17;;;33.00;;
48975;SDS011;34791;52.752;8.346;2022-12-26T00:55:40;179.23;;;31.67;;
48975;SDS011;34791;52.752;8.346;2022-12-26T00:58:06;180.13;;;32.00;;
48975;SDS011;34791;52.752;8.346;2022-12-26T01:00:31;174.63;;;30.37;;
48975;SDS011;34791;52.752;8.346;2022-12-26T01:02:57;182.70;;;31.17;;
48975;SDS011;34791;52.752;8.346;2022-12-26T01:05:22;151.03;;;29.63;;
48975;SDS011;34791;52.752;8.346;2022-12-26T01:07:48;163.53;;;30.37;;
48975;SDS011;34791;52.752;8.346;2022-12-26T01:10:13;168.43;;;30.67;;
48975;SDS011;34791;52.752;8.346;2022-12-26T01:12:39;141.20;;;29.37;;
48975;SDS011;34791;52.752;8.346;2022-12-26T01:15:05;148.97;;;30.33;;
48975;SDS011;34791;52.752;8.346;2022-12-26T01:17:31;147.53;;;28.60;;
48975;SDS011;34791;52.752;8.346;2022-12-26T01:19:57;135.17;;;27.50;;
48975;SDS011;34791;52.752;8.346;2022-12-26T01:22:23;134.17;;;28.30;;
48975;SDS011;34791;52.752;8.346;2022-12-26T01:24:56;132.83;;;27.77;;
48975;SDS011;34791;52.752;8.346;2022-12-26T01:27:22;147.43;;;29.07;;
48975;SDS011;34791;52.752;8.346;2022-12-26T01:29:49;145.00;;;29.20;;
48975;SDS011;34791;52.752;8.346;2022-12-26T01:32:17;137.87;;;28.47;;
48975;SDS011;34791;52.752;8.346;2022-12-26T01:34:43;140.73;;;27.73;;
48975;SDS011;34791;52.752;8.346;2022-12-26T01:37:09;146.83;;;29.80;;
48975;SDS011;34791;52.752;8.346;2022-12-26T01:39:37;139.70;;;28.67;;
48975;SDS011;34791;52.752;8.346;2022-12-26T01:42:04;130.70;;;28.10;;
48975;SDS011;34791;52.752;8.346;2022-12-26T01:47:29;146.63;;;28.27;;
48975;SDS011;34791;52.752;8.346;2022-12-26T01:50:03;144.03;;;28.80;;
48975;SDS011;34791;52.752;8.346;2022-12-26T01:52:42;138.40;;;28.27;;
48975;SDS011;34791;52.752;8.346;2022-12-26T01:55:10;143.63;;;27.77;;
48975;SDS011;34791;52.752;8.346;2022-12-26T01:57:41;153.77;;;27.63;;
48975;SDS011;34791;52.752;8.346;2022-12-26T02:00:10;147.43;;;28.67;;
48975;SDS011;34791;52.752;8.346;2022-12-26T02:02:36;151.57;;;29.43;;
48975;SDS011;34791;52.752;8.346;2022-12-26T02:05:22;131.60;;;27.27;;
48975;SDS011;34791;52.752;8.346;2022-12-26T02:07:58;127.77;;;26.70;;
48975;SDS011;34791;52.752;8.346;2022-12-26T02:10:25;134.10;;;27.20;;
48975;SDS011;34791;52.752;8.346;2022-12-26T02:12:52;137.27;;;28.17;;
48975;SDS011;34791;52.752;8.346;2022-12-26T02:15:18;168.67;;;30.87;;
48975;SDS011;34791;52.752;8.346;2022-12-26T02:17:44;192.73;;;33.17;;
48975;SDS011;34791;52.752;8.346;2022-12-26T02:20:16;208.63;;;34.47;;
48975;SDS011;34791;52.752;8.346;2022-12-26T02:31:30;152.73;;;28.37;;
48975;SDS011;34791;52.752;8.346;2022-12-26T02:33:43;172.83;;;32.17;;
48975;SDS011;34791;52.752;8.346;2022-12-26T02:39:08;165.70;;;29.97;;
48975;SDS011;34791;52.752;8.346;2022-12-26T02:50:38;159.43;;;29.77;;
48975;SDS011;34791;52.752;8.346;2022-12-26T02:53:37;162.67;;;28.47;;
48975;SDS011;34791;52.752;8.346;2022-12-26T02:56:33;158.63;;;29.87;;
48975;SDS011;34791;52.752;8.346;2022-12-26T03:11:39;123.03;;;26.37;;
48975;SDS011;34791;52.752;8.346;2022-12-26T03:14:29;110.78;;;25.60;;
48975;SDS011;34791;52.752;8.346;2022-12-26T03:17:09;109.00;;;24.47;;
48975;SDS011;34791;52.752;8.346;2022-12-26T03:19:47;106.47;;;24.80;;
48975;SDS011;34791;52.752;8.346;2022-12-26T03:22:36;118.73;;;24.50;;
48975;SDS011;34791;52.752;8.346;2022-12-26T03:25:14;105.97;;;24.07;;
48975;SDS011;34791;52.752;8.346;2022-12-26T03:28:02;112.23;;;24.57;;
48975;SDS011;34791;52.752;8.346;2022-12-26T03:30:28;107.23;;;23.90;;
48975;SDS011;34791;52.752;8.346;2022-12-26T03:33:13;113.80;;;26.57;;
48975;SDS011;34791;52.752;8.346;2022-12-26T03:36:15;115.60;;;24.57;;
48975;SDS011;34791;52.752;8.346;2022-12-26T03:41:50;117.53;;;26.33;;
48975;SDS011;34791;52.752;8.346;2022-12-26T03:44:47;132.60;;;26.83;;
48975;SDS011;34791;52.752;8.346;2022-12-26T03:47:51;107.00;;;22.80;;
48975;SDS011;34791;52.752;8.346;2022-12-26T03:50:41;131.70;;;27.03;;
48975;SDS011;34791;52.752;8.346;2022-12-26T03:53:34;110.20;;;24.83;;
48975;SDS011;34791;52.752;8.346;2022-12-26T03:56:32;104.73;;;24.90;;
48975;SDS011;34791;52.752;8.346;2022-12-26T03:59:43;111.47;;;23.77;;
48975;SDS011;34791;52.752;8.346;2022-12-26T04:02:29;118.57;;;27.27;;
48975;SDS011;34791;52.752;8.346;2022-12-26T04:05:16;120.07;;;26.33;;
48975;SDS011;34791;52.752;8.346;2022-12-26T04:08:04;107.80;;;22.73;;
48975;SDS011;34791;52.752;8.346;2022-12-26T04:10:54;123.95;;;25.75;;
48975;SDS011;34791;52.752;8.346;2022-12-26T04:24:53;124.53;;;26.23;;
48975;SDS011;34791;52.752;8.346;2022-12-26T04:27:39;122.20;;;26.20;;
48975;SDS011;34791;52.752;8.346;2022-12-26T04:30:22;86.57;;;18.83;;
48975;SDS011;34791;52.752;8.346;2022-12-26T04:33:11;110.30;;;24.17;;
48975;SDS011;34791;52.752;8.346;2022-12-26T04:36:09;113.90;;;25.70;;
48975;SDS011;34791;52.752;8.346;2022-12-26T04:39:00;116.25;;;26.38;;
48975;SDS011;34791;52.752;8.346;2022-12-26T04:41:47;116.10;;;26.43;;
48975;SDS011;34791;52.752;8.346;2022-12-26T04:44:33;114.17;;;26.43;;
48975;SDS011;34791;52.752;8.346;2022-12-26T04:47:00;105.27;;;25.00;;
48975;SDS011;34791;52.752;8.346;2022-12-26T04:49:25;102.67;;;23.00;;
48975;SDS011;34791;52.752;8.346;2022-12-26T04:52:10;121.30;;;25.97;;
48975;SDS011;34791;52.752;8.346;2022-12-26T04:54:38;116.40;;;23.87;;
48975;SDS011;34791;52.752;8.346;2022-12-26T04:57:04;107.07;;;25.40;;
48975;SDS011;34791;52.752;8.346;2022-12-26T04:59:30;108.43;;;26.77;;
48975;SDS011;34791;52.752;8.346;2022-12-26T05:01:55;108.17;;;25.73;;
48975;SDS011;34791;52.752;8.346;2022-12-26T05:04:40;106.77;;;24.10;;
48975;SDS011;34791;52.752;8.346;2022-12-26T05:07:33;104.47;;;24.37;;
48975;SDS011;34791;52.752;8.346;2022-12-26T05:10:19;85.27;;;21.30;;
48975;SDS011;34791;52.752;8.346;2022-12-26T05:12:46;97.40;;;24.07;;
48975;SDS011;34791;52.752;8.346;2022-12-26T05:15:12;91.67;;;23.60;;
48975;SDS011;34791;52.752;8.346;2022-12-26T05:17:38;89.17;;;21.93;;
48975;SDS011;34791;52.752;8.346;2022-12-26T05:20:22;88.37;;;20.90;;
48975;SDS011;34791;52.752;8.346;2022-12-26T05:22:53;77.47;;;20.00;;
48975;SDS011;34791;52.752;8.346;2022-12-26T05:25:39;87.43;;;21.93;;
48975;SDS011;34791;52.752;8.346;2022-12-26T05:28:25;85.53;;;21.53;;
48975;SDS011;34791;52.752;8.346;2022-12-26T05:31:07;77.40;;;19.17;;
48975;SDS011;34791;52.752;8.346;2022-12-26T05:33:33;80.90;;;19.90;;
48975;SDS011;34791;52.752;8.346;2022-12-26T05:36:18;80.67;;;21.20;;
48975;SDS011;34791;52.752;8.346;2022-12-26T05:38:45;69.40;;;18.07;;
48975;SDS011;34791;52.752;8.346;2022-12-26T05:41:12;74.87;;;19.37;;
48975;SDS011;34791;52.752;8.346;2022-12-26T05:43:38;81.30;;;20.70;;
48975;SDS011;34791;52.752;8.346;2022-12-26T05:46:03;80.17;;;20.47;;
48975;SDS011;34791;52.752;8.346;2022-12-26T05:48:29;77.43;;;20.00;;
48975;SDS011;34791;52.752;8.346;2022-12-26T05:50:58;73.90;;;19.30;;
48975;SDS011;34791;52.752;8.346;2022-12-26T05:53:24;79.17;;;19.43;;
48975;SDS011;34791;52.752;8.346;2022-12-26T05:55:50;79.57;;;20.63;;
48975;SDS011;34791;52.752;8.346;2022-12-26T05:58:16;73.70;;;20.03;;
48975;SDS011;34791;52.752;8.346;2022-12-26T06:00:41;79.13;;;20.83;;
48975;SDS011;34791;52.752;8.346;2022-12-26T06:03:06;78.37;;;19.20;;
48975;SDS011;34791;52.752;8.346;2022-12-26T06:05:32;80.60;;;19.87;;
48975;SDS011;34791;52.752;8.346;2022-12-26T06:07:57;77.03;;;19.53;;
48975;SDS011;34791;52.752;8.346;2022-12-26T06:10:22;84.07;;;21.63;;
48975;SDS011;34791;52.752;8.346;2022-12-26T06:12:50;76.93;;;19.37;;
48975;SDS011;34791;52.752;8.346;2022-12-26T06:15:16;79.40;;;19.53;;
48975;SDS011;34791;52.752;8.346;2022-12-26T06:17:42;80.07;;;20.40;;
48975;SDS011;34791;52.752;8.346;2022-12-26T06:20:07;81.10;;;20.87;;
48975;SDS011;34791;52.752;8.346;2022-12-26T06:22:33;78.47;;;20.57;;
48975;SDS011;34791;52.752;8.346;2022-12-26T06:24:58;82.60;;;22.67;;
48975;SDS011;34791;52.752;8.346;2022-12-26T06:27:24;79.43;;;21.60;;
48975;SDS011;34791;52.752;8.346;2022-12-26T06:29:49;75.40;;;18.60;;
48975;SDS011;34791;52.752;8.346;2022-12-26T06:32:15;63.67;;;17.17;;
48975;SDS011;34791;52.752;8.346;2022-12-26T06:34:40;70.90;;;19.97;;
48975;SDS011;34791;52.752;8.346;2022-12-26T06:37:06;80.40;;;21.60;;
48975;SDS011;34791;52.752;8.346;2022-12-26T06:39:31;76.80;;;20.80;;
48975;SDS011;34791;52.752;8.346;2022-12-26T06:41:56;75.17;;;21.63;;
48975;SDS011;34791;52.752;8.346;2022-12-26T06:44:22;63.67;;;17.30;;
48975;SDS011;34791;52.752;8.346;2022-12-26T06:46:47;61.40;;;17.70;;
48975;SDS011;34791;52.752;8.346;2022-12-26T06:49:13;63.10;;;17.43;;
48975;SDS011;34791;52.752;8.346;2022-12-26T06:51:38;45.50;;;14.60;;
48975;SDS011;34791;52.752;8.346;2022-12-26T06:54:03;59.13;;;19.83;;
48975;SDS011;34791;52.752;8.346;2022-12-26T06:56:29;55.43;;;16.10;;
48975;SDS011;34791;52.752;8.346;2022-12-26T06:58:57;54.00;;;17.80;;
48975;SDS011;34791;52.752;8.346;2022-12-26T07:01:24;51.37;;;17.07;;
48975;SDS011;34791;52.752;8.346;2022-12-26T07:03:52;51.63;;;16.60;;
48975;SDS011;34791;52.752;8.346;2022-12-26T07:08:46;52.03;;;18.37;;
48975;SDS011;34791;52.752;8.346;2022-12-26T07:11:15;51.37;;;16.93;;
48975;SDS011;34791;52.752;8.346;2022-12-26T07:13:42;50.17;;;16.90;;
48975;SDS011;34791;52.752;8.346;2022-12-26T07:16:08;43.73;;;16.40;;
48975;SDS011;34791;52.752;8.346;2022-12-26T07:18:34;46.40;;;16.30;;
48975;SDS011;34791;52.752;8.346;2022-12-26T07:21:03;45.13;;;16.63;;
48975;SDS011;34791;52.752;8.346;2022-12-26T07:23:30;55.37;;;17.77;;
48975;SDS011;34791;52.752;8.346;2022-12-26T07:25:55;49.90;;;16.23;;
48975;SDS011;34791;52.752;8.346;2022-12-26T07:28:21;50.30;;;17.27;;
48975;SDS011;34791;52.752;8.346;2022-12-26T07:30:46;52.90;;;17.60;;
48975;SDS011;34791;52.752;8.346;2022-12-26T07:33:13;53.70;;;18.13;;
48975;SDS011;34791;52.752;8.346;2022-12-26T07:35:38;54.17;;;17.87;;
48975;SDS011;34791;52.752;8.346;2022-12-26T07:38:04;55.17;;;18.30;;
48975;SDS011;34791;52.752;8.346;2022-12-26T07:40:29;53.97;;;17.77;;
48975;SDS011;34791;52.752;8.346;2022-12-26T07:42:54;53.90;;;18.83;;
48975;SDS011;34791;52.752;8.346;2022-12-26T07:45:20;52.30;;;17.90;;
48975;SDS011;34791;52.752;8.346;2022-12-26T07:47:45;52.90;;;19.23;;
48975;SDS011;34791;52.752;8.346;2022-12-26T07:50:10;55.40;;;19.17;;
48975;SDS011;34791;52.752;8.346;2022-12-26T07:52:36;53.67;;;18.23;;
48975;SDS011;34791;52.752;8.346;2022-12-26T07:55:01;58.20;;;18.90;;
48975;SDS011;34791;52.752;8.346;2022-12-26T07:57:28;55.87;;;17.93;;
48975;SDS011;34791;52.752;8.346;2022-12-26T07:59:54;50.47;;;18.10;;
48975;SDS011;34791;52.752;8.346;2022-12-26T08:02:19;55.00;;;19.37;;
48975;SDS011;34791;52.752;8.346;2022-12-26T08:04:44;58.47;;;19.10;;
48975;SDS011;34791;52.752;8.346;2022-12-26T08:07:10;54.97;;;18.57;;
48975;SDS011;34791;52.752;8.346;2022-12-26T08:09:35;57.30;;;19.37;;
48975;SDS011;34791;52.752;8.346;2022-12-26T08:12:02;56.23;;;17.73;;
48975;SDS011;34791;52.752;8.346;2022-12-26T08:14:27;52.77;;;17.67;;
48975;SDS011;34791;52.752;8.346;2022-12-26T08:16:53;50.17;;;18.23;;
48975;SDS011;34791;52.752;8.346;2022-12-26T08:19:18;59.43;;;20.37;;
48975;SDS011;34791;52.752;8.346;2022-12-26T08:21:43;54.20;;;18.07;;
48975;SDS011;34791;52.752;8.346;2022-12-26T08:24:09;56.20;;;19.23;;
48975;SDS011;34791;52.752;8.346;2022-12-26T08:26:34;54.53;;;18.73;;
48975;SDS011;34791;52.752;8.346;2022-12-26T08:29:00;53.90;;;19.83;;
48975;SDS011;34791;52.752;8.346;2022-12-26T08:31:25;55.20;;;20.53;;
48975;SDS011;34791;52.752;8.346;2022-12-26T08:33:53;50.57;;;18.80;;
48975;SDS011;34791;52.752;8.346;2022-12-26T08:36:19;53.87;;;19.50;;
48975;SDS011;34791;52.752;8.346;2022-12-26T08:38:45;47.07;;;17.63;;
48975;SDS011;34791;52.752;8.346;2022-12-26T08:41:10;39.93;;;16.60;;
48975;SDS011;34791;52.752;8.346;2022-12-26T08:43:36;43.57;;;16.93;;
48975;SDS011;34791;52.752;8.346;2022-12-26T08:46:06;39.40;;;16.93;;
48975;SDS011;34791;52.752;8.346;2022-12-26T08:48:34;42.60;;;18.47;;
48975;SDS011;34791;52.752;8.346;2022-12-26T08:51:02;39.27;;;17.63;;
48975;SDS011;34791;52.752;8.346;2022-12-26T08:53:32;37.78;;;17.50;;
48975;SDS011;34791;52.752;8.346;2022-12-26T08:55:59;31.93;;;14.93;;
48975;SDS011;34791;52.752;8.346;2022-12-26T08:58:26;22.47;;;11.10;;
48975;SDS011;34791;52.752;8.346;2022-12-26T09:00:52;24.10;;;11.90;;
48975;SDS011;34791;52.752;8.346;2022-12-26T09:03:17;29.97;;;14.43;;
48975;SDS011;34791;52.752;8.346;2022-12-26T09:05:43;25.10;;;11.07;;
48975;SDS011;34791;52.752;8.346;2022-12-26T09:08:09;21.13;;;10.60;;
48975;SDS011;34791;52.752;8.346;2022-12-26T09:10:35;23.80;;;12.37;;
48975;SDS011;34791;52.752;8.346;2022-12-26T09:13:00;23.63;;;13.00;;
48975;SDS011;34791;52.752;8.346;2022-12-26T09:15:26;21.70;;;10.70;;
48975;SDS011;34791;52.752;8.346;2022-12-26T09:17:51;20.80;;;11.47;;
48975;SDS011;34791;52.752;8.346;2022-12-26T09:20:17;19.20;;;10.20;;
48975;SDS011;34791;52.752;8.346;2022-12-26T09:22:42;19.87;;;9.13;;
48975;SDS011;34791;52.752;8.346;2022-12-26T09:25:25;22.83;;;11.73;;
48975;SDS011;34791;52.752;8.346;2022-12-26T09:27:51;22.10;;;10.87;;
48975;SDS011;34791;52.752;8.346;2022-12-26T09:30:18;21.97;;;11.30;;
48975;SDS011;34791;52.752;8.346;2022-12-26T09:32:45;21.40;;;10.93;;
48975;SDS011;34791;52.752;8.346;2022-12-26T09:35:10;20.67;;;10.73;;
48975;SDS011;34791;52.752;8.346;2022-12-26T09:37:35;18.87;;;10.83;;
48975;SDS011;34791;52.752;8.346;2022-12-26T09:40:01;20.10;;;11.17;;
48975;SDS011;34791;52.752;8.346;2022-12-26T09:45:48;15.87;;;8.63;;
48975;SDS011;34791;52.752;8.346;2022-12-26T09:48:23;14.23;;;8.13;;
48975;SDS011;34791;52.752;8.346;2022-12-26T09:50:55;15.73;;;7.63;;
48975;SDS011;34791;52.752;8.346;2022-12-26T09:53:25;12.67;;;6.80;;
48975;SDS011;34791;52.752;8.346;2022-12-26T09:55:57;14.43;;;6.80;;
48975;SDS011;34791;52.752;8.346;2022-12-26T09:58:29;15.30;;;6.53;;
48975;SDS011;34791;52.752;8.346;2022-12-26T10:03:53;10.90;;;5.90;;
48975;SDS011;34791;52.752;8.346;2022-12-26T10:12:16;11.70;;;6.30;;
48975;SDS011;34791;52.752;8.346;2022-12-26T10:15:13;9.00;;;5.63;;
48975;SDS011;34791;52.752;8.346;2022-12-26T10:17:54;8.73;;;4.07;;
48975;SDS011;34791;52.752;8.346;2022-12-26T10:25:37;10.10;;;5.50;;
48975;SDS011;34791;52.752;8.346;2022-12-26T10:28:16;8.97;;;4.87;;
48975;SDS011;34791;52.752;8.346;2022-12-26T10:30:42;12.27;;;5.03;;
48975;SDS011;34791;52.752;8.346;2022-12-26T10:33:14;10.60;;;5.10;;
48975;SDS011;34791;52.752;8.346;2022-12-26T10:35:43;9.87;;;4.53;;
48975;SDS011;34791;52.752;8.346;2022-12-26T10:40:52;8.63;;;4.28;;
48975;SDS011;34791;52.752;8.346;2022-12-26T10:43:27;10.87;;;4.90;;
48975;SDS011;34791;52.752;8.346;2022-12-26T10:48:55;10.80;;;4.80;;
48975;SDS011;34791;52.752;8.346;2022-12-26T10:51:20;7.83;;;4.50;;
48975;SDS011;34791;52.752;8.346;2022-12-26T10:53:47;12.20;;;4.40;;
48975;SDS011;34791;52.752;8.346;2022-12-26T10:56:14;11.13;;;3.80;;
48975;SDS011;34791;52.752;8.346;2022-12-26T10:58:40;10.40;;;4.77;;
48975;SDS011;34791;52.752;8.346;2022-12-26T11:03:58;7.17;;;3.90;;
48975;SDS011;34791;52.752;8.346;2022-12-26T11:06:46;9.97;;;4.30;;
48975;SDS011;34791;52.752;8.346;2022-12-26T11:09:37;11.37;;;4.07;;
48975;SDS011;34791;52.752;8.346;2022-12-26T11:15:05;8.60;;;3.77;;
48975;SDS011;34791;52.752;8.346;2022-12-26T11:17:42;8.53;;;4.30;;
48975;SDS011;34791;52.752;8.346;2022-12-26T11:20:10;6.63;;;3.50;;
48975;SDS011;34791;52.752;8.346;2022-12-26T11:22:36;8.47;;;3.53;;
48975;SDS011;34791;52.752;8.346;2022-12-26T11:27:36;11.03;;;3.37;;
48975;SDS011;34791;52.752;8.346;2022-12-26T11:35:46;6.50;;;2.50;;
48975;SDS011;34791;52.752;8.346;2022-12-26T11:38:18;7.00;;;3.20;;
48975;SDS011;34791;52.752;8.346;2022-12-26T11:41:49;7.67;;;4.20;;
48975;SDS011;34791;52.752;8.346;2022-12-26T11:49:34;7.20;;;3.67;;
48975;SDS011;34791;52.752;8.346;2022-12-26T11:54:53;6.73;;;4.07;;
48975;SDS011;34791;52.752;8.346;2022-12-26T11:57:29;10.13;;;4.40;;
48975;SDS011;34791;52.752;8.346;2022-12-26T12:00:15;9.87;;;3.90;;
48975;SDS011;34791;52.752;8.346;2022-12-26T12:02:43;10.13;;;3.60;;
48975;SDS011;34791;52.752;8.346;2022-12-26T12:08:11;7.43;;;3.63;;
48975;SDS011;34791;52.752;8.346;2022-12-26T12:13:50;5.90;;;3.47;;
48975;SDS011;34791;52.752;8.346;2022-12-26T12:45:15;5.65;;;1.20;;
48975;SDS011;34791;52.752;8.346;2022-12-26T12:59:06;8.77;;;1.60;;
48975;SDS011;34791;52.752;8.346;2022-12-26T13:01:45;3.57;;;0.80;;
48975;SDS011;34791;52.752;8.346;2022-12-26T13:04:16;157.57;;;3.83;;
48975;SDS011;34791;52.752;8.346;2022-12-26T13:06:50;4.68;;;0.70;;
48975;SDS011;34791;52.752;8.346;2022-12-26T13:09:20;4.40;;;1.00;;
48975;SDS011;34791;52.752;8.346;2022-12-26T13:11:52;3.45;;;1.02;;
48975;SDS011;34791;52.752;8.346;2022-12-26T13:14:23;2.72;;;0.73;;
48975;SDS011;34791;52.752;8.346;2022-12-26T13:16:53;3.53;;;0.73;;
48975;SDS011;34791;52.752;8.346;2022-12-26T13:19:23;3.53;;;0.82;;
48975;SDS011;34791;52.752;8.346;2022-12-26T13:21:53;2.47;;;0.60;;
48975;SDS011;34791;52.752;8.346;2022-12-26T13:24:29;3.00;;;0.80;;
48975;SDS011;34791;52.752;8.346;2022-12-26T13:27:00;33.37;;;1.50;;
48975;SDS011;34791;52.752;8.346;2022-12-26T13:29:36;5.47;;;0.70;;
48975;SDS011;34791;52.752;8.346;2022-12-26T13:32:04;3.10;;;0.90;;
48975;SDS011;34791;52.752;8.346;2022-12-26T13:34:42;5.70;;;1.10;;
48975;SDS011;34791;52.752;8.346;2022-12-26T13:37:51;3.90;;;0.80;;
48975;SDS011;34791;52.752;8.346;2022-12-26T13:39:57;6.00;;;1.00;;
48975;SDS011;34791;52.752;8.346;2022-12-26T13:42:31;2.80;;;0.90;;
48975;SDS011;34791;52.752;8.346;2022-12-26T13:46:04;3.23;;;0.77;;
48975;SDS011;34791;52.752;8.346;2022-12-26T13:50:48;1.77;;;0.50;;
48975;SDS011;34791;52.752;8.346;2022-12-26T13:53:25;3.27;;;0.60;;
48975;SDS011;34791;52.752;8.346;2022-12-26T13:56:00;2.27;;;0.60;;
48975;SDS011;34791;52.752;8.346;2022-12-26T14:01:16;8.13;;;1.10;;
48975;SDS011;34791;52.752;8.346;2022-12-26T14:03:57;2.50;;;0.60;;
48975;SDS011;34791;52.752;8.346;2022-12-26T14:06:48;5.03;;;1.00;;
48975;SDS011;34791;52.752;8.346;2022-12-26T14:16:05;3.20;;;0.70;;
48975;SDS011;34791;52.752;8.346;2022-12-26T14:18:31;4.53;;;0.80;;
48975;SDS011;34791;52.752;8.346;2022-12-26T14:35:37;6.07;;;0.97;;
48975;SDS011;34791;52.752;8.346;2022-12-26T14:38:19;6.73;;;0.90;;
48975;SDS011;34791;52.752;8.346;2022-12-26T14:40:56;6.53;;;1.00;;
48975;SDS011;34791;52.752;8.346;2022-12-26T14:43:32;9.27;;;1.27;;
48975;SDS011;34791;52.752;8.346;2022-12-26T14:46:00;7.10;;;1.00;;
48975;SDS011;34791;52.752;8.346;2022-12-26T14:50:53;8.50;;;1.33;;
48975;SDS011;34791;52.752;8.346;2022-12-26T14:53:39;9.20;;;1.20;;
48975;SDS011;34791;52.752;8.346;2022-12-26T14:58:40;8.60;;;1.50;;
48975;SDS011;34791;52.752;8.346;2022-12-26T15:23:09;10.63;;;1.57;;
48975;SDS011;34791;52.752;8.346;2022-12-26T15:28:45;10.77;;;1.83;;
48975;SDS011;34791;52.752;8.346;2022-12-26T15:36:44;10.20;;;2.30;;
48975;SDS011;34791;52.752;8.346;2022-12-26T15:39:26;13.13;;;2.73;;
48975;SDS011;34791;52.752;8.346;2022-12-26T15:44:45;10.93;;;1.80;;
48975;SDS011;34791;52.752;8.346;2022-12-26T15:50:25;9.13;;;1.80;;
48975;SDS011;34791;52.752;8.346;2022-12-26T16:01:34;11.83;;;1.70;;
48975;SDS011;34791;52.752;8.346;2022-12-26T16:04:02;9.60;;;1.83;;
48975;SDS011;34791;52.752;8.346;2022-12-26T16:09:46;13.83;;;2.90;;
48975;SDS011;34791;52.752;8.346;2022-12-26T16:15:12;10.87;;;1.50;;
48975;SDS011;34791;52.752;8.346;2022-12-26T16:17:41;14.27;;;1.67;;
48975;SDS011;34791;52.752;8.346;2022-12-26T16:23:09;7.30;;;1.53;;
48975;SDS011;34791;52.752;8.346;2022-12-26T16:25:38;15.20;;;2.27;;
48975;SDS011;34791;52.752;8.346;2022-12-26T16:28:04;11.97;;;1.97;;
48975;SDS011;34791;52.752;8.346;2022-12-26T16:30:31;11.90;;;1.83;;
48975;SDS011;34791;52.752;8.346;2022-12-26T16:33:00;12.73;;;2.67;;
48975;SDS011;34791;52.752;8.346;2022-12-26T16:35:34;8.63;;;1.60;;
48975;SDS011;34791;52.752;8.346;2022-12-26T16:38:03;6.87;;;1.73;;
48975;SDS011;34791;52.752;8.346;2022-12-26T16:40:40;10.20;;;1.80;;
48975;SDS011;34791;52.752;8.346;2022-12-26T16:43:21;14.43;;;1.60;;
48975;SDS011;34791;52.752;8.346;2022-12-26T16:45:48;12.30;;;1.77;;
48975;SDS011;34791;52.752;8.346;2022-12-26T16:48:16;11.53;;;2.17;;
48975;SDS011;34791;52.752;8.346;2022-12-26T16:50:47;10.43;;;1.70;;
48975;SDS011;34791;52.752;8.346;2022-12-26T16:53:15;14.80;;;2.10;;
48975;SDS011;34791;52.752;8.346;2022-12-26T16:55:46;15.20;;;2.47;;
48975;SDS011;34791;52.752;8.346;2022-12-26T17:00:53;12.07;;;2.30;;
48975;SDS011;34791;52.752;8.346;2022-12-26T17:06:21;19.10;;;3.83;;
48975;SDS011;34791;52.752;8.346;2022-12-26T17:08:51;18.53;;;2.83;;
48975;SDS011;34791;52.752;8.346;2022-12-26T17:11:24;12.63;;;3.00;;
48975;SDS011;34791;52.752;8.346;2022-12-26T17:13:52;15.87;;;3.60;;
48975;SDS011;34791;52.752;8.346;2022-12-26T17:16:20;9.13;;;2.40;;
48975;SDS011;34791;52.752;8.346;2022-12-26T17:18:48;19.03;;;3.53;;
48975;SDS011;34791;52.752;8.346;2022-12-26T17:23:44;13.77;;;2.50;;
48975;SDS011;34791;52.752;8.346;2022-12-26T17:26:23;13.77;;;2.73;;
48975;SDS011;34791;52.752;8.346;2022-12-26T17:28:51;19.60;;;2.97;;
48975;SDS011;34791;52.752;8.346;2022-12-26T17:34:07;14.73;;;3.80;;
48975;SDS011;34791;52.752;8.346;2022-12-26T17:36:39;11.60;;;3.03;;
48975;SDS011;34791;52.752;8.346;2022-12-26T17:39:37;14.80;;;3.27;;
48975;SDS011;34791;52.752;8.346;2022-12-26T17:41:57;17.58;;;3.10;;
48975;SDS011;34791;52.752;8.346;2022-12-26T17:44:38;12.57;;;2.47;;
48975;SDS011;34791;52.752;8.346;2022-12-26T17:47:17;14.40;;;2.40;;
48975;SDS011;34791;52.752;8.346;2022-12-26T17:49:48;12.80;;;2.53;;
48975;SDS011;34791;52.752;8.346;2022-12-26T17:52:15;13.70;;;2.30;;
48975;SDS011;34791;52.752;8.346;2022-12-26T17:54:42;16.20;;;2.50;;
48975;SDS011;34791;52.752;8.346;2022-12-26T17:57:14;19.57;;;2.73;;
48975;SDS011;34791;52.752;8.346;2022-12-26T17:59:41;17.50;;;2.67;;
48975;SDS011;34791;52.752;8.346;2022-12-26T18:02:07;13.17;;;2.60;;
48975;SDS011;34791;52.752;8.346;2022-12-26T18:04:34;13.30;;;2.57;;
48975;SDS011;34791;52.752;8.346;2022-12-26T18:06:59;14.27;;;2.90;;
48975;SDS011;34791;52.752;8.346;2022-12-26T18:09:25;18.90;;;4.27;;
48975;SDS011;34791;52.752;8.346;2022-12-26T18:11:51;10.83;;;2.87;;
48975;SDS011;34791;52.752;8.346;2022-12-26T18:14:18;15.50;;;2.63;;
48975;SDS011;34791;52.752;8.346;2022-12-26T18:16:44;19.80;;;2.67;;
48975;SDS011;34791;52.752;8.346;2022-12-26T18:19:12;12.57;;;2.50;;
48975;SDS011;34791;52.752;8.346;2022-12-26T18:21:39;13.40;;;2.37;;
48975;SDS011;34791;52.752;8.346;2022-12-26T18:24:05;14.43;;;3.30;;
48975;SDS011;34791;52.752;8.346;2022-12-26T18:26:30;12.93;;;2.00;;
48975;SDS011;34791;52.752;8.346;2022-12-26T18:28:56;11.37;;;1.80;;
48975;SDS011;34791;52.752;8.346;2022-12-26T18:31:22;15.63;;;2.27;;
48975;SDS011;34791;52.752;8.346;2022-12-26T18:33:48;10.57;;;2.60;;
48975;SDS011;34791;52.752;8.346;2022-12-26T18:36:14;14.03;;;2.67;;
48975;SDS011;34791;52.752;8.346;2022-12-26T18:38:41;14.17;;;2.40;;
48975;SDS011;34791;52.752;8.346;2022-12-26T18:41:08;17.00;;;2.47;;
48975;SDS011;34791;52.752;8.346;2022-12-26T18:43:37;18.48;;;2.75;;
48975;SDS011;34791;52.752;8.346;2022-12-26T18:46:03;14.63;;;3.13;;
48975;SDS011;34791;52.752;8.346;2022-12-26T18:48:29;11.87;;;2.23;;
48975;SDS011;34791;52.752;8.346;2022-12-26T18:50:54;13.90;;;2.10;;